Time;durP1;ratioP1;P1;durP2;ratioP2;P2;SDS_P1;SDS_P2;PMS_P1;PMS_P2;Temp;Humidity;BMP_temperature;BMP_pressure;BME280_temperature;BME280_humidity;BME280_pressure;Samples;Min_cycle;Max_cycle;Signal;HPM_P1;HPM_P2
2022/09/01 00:01:38;;;;;;;3.40;2.13;;;18.40;59.10;;;;;;918414;152;27362;-74
2022/09/01 00:04:04;;;;;;;2.83;1.32;;;18.30;59.10;;;;;;918103;152;27370;-74
2022/09/01 00:06:31;;;;;;;1.98;1.87;;;18.20;59.20;;;;;;919732;152;27457;-74
2022/09/01 00:08:57;;;;;;;2.37;1.95;;;18.20;59.30;;;;;;919672;152;27420;-74
2022/09/01 00:11:23;;;;;;;1.87;1.77;;;18.10;59.40;;;;;;919215;152;27397;-74
2022/09/01 00:13:50;;;;;;;1.75;1.62;;;18.00;59.60;;;;;;918375;152;27357;-74
2022/09/01 00:16:17;;;;;;;4.35;1.50;;;18.00;59.70;;;;;;920432;151;27369;-74
2022/09/01 00:18:45;;;;;;;1.50;1.40;;;18.00;59.80;;;;;;919550;152;27354;-74
2022/09/01 00:21:10;;;;;;;1.50;1.40;;;17.90;60.00;;;;;;932294;150;27448;-74
2022/09/01 00:23:36;;;;;;;2.75;1.87;;;17.80;60.10;;;;;;933368;150;27502;-74
2022/09/01 00:26:03;;;;;;;1.85;1.60;;;17.80;60.00;;;;;;917170;152;27525;-74
2022/09/01 00:28:30;;;;;;;2.33;2.15;;;17.80;60.20;;;;;;933647;150;27460;-74
2022/09/01 00:30:57;;;;;;;1.97;1.63;;;17.70;60.20;;;;;;928388;150;27347;-74
2022/09/01 00:33:23;;;;;;;2.58;1.75;;;17.60;60.30;;;;;;926952;153;27360;-74
2022/09/01 00:35:49;;;;;;;4.77;1.60;;;17.60;60.50;;;;;;931121;152;27386;-74
2022/09/01 00:38:16;;;;;;;2.67;1.70;;;17.50;60.50;;;;;;929152;152;27482;-74
2022/09/01 00:40:42;;;;;;;3.50;1.77;;;17.50;60.80;;;;;;930969;151;27870;-74
2022/09/01 00:43:12;;;;;;;1.60;1.50;;;17.40;60.80;;;;;;928482;153;27420;-74
2022/09/01 00:45:38;;;;;;;1.82;1.60;;;17.40;61.10;;;;;;932696;150;27409;-74
2022/09/01 00:48:05;;;;;;;1.62;1.52;;;17.40;61.20;;;;;;932979;150;27381;-74
2022/09/01 00:50:32;;;;;;;1.67;1.57;;;17.30;61.30;;;;;;930349;152;27392;-74
2022/09/01 00:52:58;;;;;;;2.05;1.72;;;17.30;61.40;;;;;;930217;151;27734;-74
2022/09/01 00:55:25;;;;;;;2.22;1.90;;;17.20;61.50;;;;;;932690;152;27296;-74
2022/09/01 00:57:51;;;;;;;1.70;1.60;;;17.20;61.60;;;;;;933193;150;27349;-74
2022/09/01 01:00:24;;;;;;;1.87;1.77;;;17.20;61.90;;;;;;933067;152;27356;-74
2022/09/01 01:02:56;;;;;;;1.80;1.70;;;17.10;61.90;;;;;;931629;152;27488;-74
2022/09/01 01:05:20;;;;;;;1.70;1.60;;;17.10;62.10;;;;;;930411;150;27449;-74
2022/09/01 01:07:46;;;;;;;1.80;1.70;;;17.10;62.20;;;;;;929610;151;27388;-74
2022/09/01 01:10:14;;;;;;;1.70;1.60;;;17.00;62.20;;;;;;930600;152;27750;-74
2022/09/01 01:12:42;;;;;;;2.00;1.90;;;17.00;62.30;;;;;;932503;152;27388;-74
2022/09/01 01:15:06;;;;;;;1.63;1.53;;;17.00;62.50;;;;;;931623;150;27478;-73
2022/09/01 01:17:33;;;;;;;1.50;1.40;;;17.00;62.60;;;;;;929903;150;27572;-74
2022/09/01 01:23:02;;;;;;;1.70;1.60;;;17.00;62.90;;;;;;930447;150;27370;-75
2022/09/01 01:25:38;;;;;;;3.63;1.97;;;17.00;62.80;;;;;;930094;150;27400;-75
2022/09/01 01:28:04;;;;;;;1.70;1.60;;;17.00;63.00;;;;;;931667;150;27368;-75
2022/09/01 01:30:32;;;;;;;1.43;1.40;;;17.00;63.00;;;;;;931236;150;27482;-75
2022/09/01 01:32:58;;;;;;;1.77;1.67;;;17.00;63.20;;;;;;929302;150;27873;-75
2022/09/01 01:35:25;;;;;;;1.40;1.30;;;17.00;63.30;;;;;;930822;150;27403;-75
2022/09/01 01:37:51;;;;;;;2.37;1.42;;;17.00;63.50;;;;;;929288;150;27319;-75
2022/09/01 01:40:17;;;;;;;1.87;1.77;;;17.10;63.50;;;;;;930057;150;27524;-75
2022/09/01 01:42:47;;;;;;;2.67;1.70;;;17.10;63.50;;;;;;930994;149;27401;-75
2022/09/01 01:45:16;;;;;;;3.97;1.50;;;17.10;63.40;;;;;;930350;150;27874;-75
2022/09/01 01:47:41;;;;;;;2.57;1.60;;;17.10;63.50;;;;;;930958;150;27369;-75
2022/09/01 01:50:08;;;;;;;1.57;1.47;;;17.10;63.30;;;;;;930775;150;27381;-75
2022/09/01 01:52:33;;;;;;;2.40;1.53;;;17.10;63.30;;;;;;929239;150;27397;-75
2022/09/01 01:55:00;;;;;;;1.60;1.50;;;17.10;63.30;;;;;;930077;150;27421;-75
2022/09/01 01:57:30;;;;;;;1.40;1.30;;;17.20;63.50;;;;;;930469;150;27484;-75
2022/09/01 01:59:54;;;;;;;1.70;1.60;;;17.20;63.50;;;;;;935511;149;27364;-75
2022/09/01 02:02:20;;;;;;;1.60;1.50;;;17.20;63.50;;;;;;938931;149;27983;-75
2022/09/01 02:04:46;;;;;;;1.50;1.40;;;17.20;63.50;;;;;;940021;149;27360;-75
2022/09/01 02:07:13;;;;;;;1.50;1.40;;;17.20;63.50;;;;;;938175;149;27361;-75
2022/09/01 02:09:42;;;;;;;3.50;1.87;;;17.20;63.60;;;;;;938833;149;27464;-75
2022/09/01 02:12:06;;;;;;;1.87;1.77;;;17.20;63.60;;;;;;945784;147;27427;-75
2022/09/01 02:14:33;;;;;;;2.40;2.20;;;17.20;63.60;;;;;;948478;147;27335;-74
2022/09/01 02:17:00;;;;;;;1.50;1.40;;;17.20;63.80;;;;;;946043;147;27365;-75
2022/09/01 02:19:26;;;;;;;2.20;1.50;;;17.20;63.60;;;;;;945582;147;28668;-75
2022/09/01 02:21:55;;;;;;;2.20;1.50;;;17.20;63.60;;;;;;947142;147;27472;-75
2022/09/01 02:24:19;;;;;;;4.50;1.93;;;17.10;63.70;;;;;;948699;147;27389;-74
2022/09/01 02:26:47;;;;;;;2.03;1.50;;;17.20;63.90;;;;;;949448;147;27360;-75
2022/09/01 02:29:16;;;;;;;1.62;1.40;;;17.10;63.80;;;;;;949034;150;27370;-75
2022/09/01 02:31:39;;;;;;;1.70;1.60;;;17.10;63.80;;;;;;912480;152;28287;-75
2022/09/01 02:34:09;;;;;;;1.60;1.50;;;17.10;63.90;;;;;;915485;153;27531;-75
2022/09/01 02:36:36;;;;;;;1.80;1.37;;;17.00;63.80;;;;;;913368;153;27413;-75
2022/09/01 02:38:58;;;;;;;1.47;1.37;;;16.90;63.90;;;;;;913795;153;27400;-75
2022/09/01 02:41:27;;;;;;;1.30;1.20;;;16.90;64.00;;;;;;913222;153;27538;-75
2022/09/01 02:43:52;;;;;;;1.60;1.50;;;16.90;64.20;;;;;;913542;153;27404;-75
2022/09/01 02:46:22;;;;;;;1.57;1.47;;;16.90;64.30;;;;;;921061;152;27418;-75
2022/09/01 02:48:47;;;;;;;1.90;1.67;;;16.80;64.40;;;;;;915347;153;27406;-75
2022/09/01 02:51:12;;;;;;;1.70;1.60;;;16.70;64.40;;;;;;915803;153;27485;-75
2022/09/01 02:53:38;;;;;;;1.40;1.30;;;16.70;64.60;;;;;;913147;153;27331;-74
2022/09/01 02:56:08;;;;;;;1.57;1.47;;;16.70;64.70;;;;;;914835;155;27883;-75
2022/09/01 02:58:33;;;;;;;1.40;1.37;;;16.60;64.80;;;;;;916184;153;28236;-75
2022/09/01 03:00:58;;;;;;;1.87;1.70;;;16.60;65.00;;;;;;915250;153;27414;-75
2022/09/01 03:03:24;;;;;;;1.50;1.40;;;16.50;65.10;;;;;;916488;153;27440;-75
2022/09/01 03:05:55;;;;;;;1.47;1.40;;;16.50;65.20;;;;;;916181;153;27444;-74
2022/09/01 03:08:17;;;;;;;1.70;1.60;;;16.50;65.30;;;;;;913903;153;27383;-75
2022/09/01 03:10:46;;;;;;;1.60;1.50;;;16.40;65.30;;;;;;929220;150;27278;-74
2022/09/01 03:13:11;;;;;;;1.60;1.50;;;16.40;65.50;;;;;;915142;153;27461;-74
2022/09/01 03:15:37;;;;;;;1.30;1.30;;;16.40;65.70;;;;;;928005;151;27491;-74
2022/09/01 03:18:04;;;;;;;1.63;1.53;;;16.30;65.70;;;;;;929680;150;27486;-74
2022/09/01 03:20:32;;;;;;;1.50;1.40;;;16.30;65.90;;;;;;932181;151;27426;-74
2022/09/01 03:22:58;;;;;;;1.97;1.50;;;16.30;66.00;;;;;;925868;150;27518;-74
2022/09/01 03:25:24;;;;;;;1.60;1.50;;;16.20;65.90;;;;;;928872;150;27349;-74
2022/09/01 03:27:50;;;;;;;1.70;1.43;;;16.20;66.00;;;;;;924804;151;27493;-74
2022/09/01 03:30:17;;;;;;;1.60;1.50;;;16.10;66.20;;;;;;924263;153;27507;-74
2022/09/01 03:32:44;;;;;;;1.80;1.70;;;16.10;66.40;;;;;;937535;149;27432;-74
2022/09/01 03:35:10;;;;;;;1.83;1.67;;;16.10;66.50;;;;;;944432;147;27373;-74
2022/09/01 03:37:38;;;;;;;1.60;1.40;;;16.00;66.60;;;;;;948449;147;27336;-74
2022/09/01 03:40:04;;;;;;;1.40;1.30;;;16.00;66.70;;;;;;946207;147;27377;-74
2022/09/01 03:42:30;;;;;;;1.80;1.67;;;16.00;66.80;;;;;;947753;147;29492;-74
2022/09/01 03:44:56;;;;;;;1.70;1.60;;;15.90;66.80;;;;;;948442;147;27415;-74
2022/09/01 03:47:23;;;;;;;1.80;1.70;;;15.90;67.00;;;;;;947015;147;27363;-74
2022/09/01 03:49:49;;;;;;;1.50;1.40;;;15.90;67.00;;;;;;947006;147;27433;-74
2022/09/01 03:52:16;;;;;;;1.97;1.70;;;15.80;67.00;;;;;;944837;148;27418;-74
2022/09/01 03:54:44;;;;;;;1.97;1.87;;;15.80;67.10;;;;;;946386;147;27387;-74
2022/09/01 03:57:09;;;;;;;1.83;1.70;;;15.80;67.30;;;;;;946183;147;27359;-74
2022/09/01 03:59:37;;;;;;;2.03;1.73;;;15.70;67.50;;;;;;948682;147;27286;-74
2022/09/01 04:02:02;;;;;;;2.00;1.80;;;15.70;67.60;;;;;;946513;147;27310;-74
2022/09/01 04:04:32;;;;;;;1.60;1.50;;;15.60;67.70;;;;;;947763;147;27359;-74
2022/09/01 04:06:56;;;;;;;1.67;1.57;;;15.60;68.70;;;;;;947202;147;27386;-74
2022/09/01 04:09:22;;;;;;;1.67;1.57;;;15.60;68.10;;;;;;947804;147;27385;-74
2022/09/01 04:11:50;;;;;;;1.63;1.53;;;15.50;68.10;;;;;;946689;147;27324;-74
2022/09/01 04:14:15;;;;;;;2.17;1.97;;;15.50;68.30;;;;;;946933;147;27454;-74
2022/09/01 04:19:29;;;;;;;3.77;1.90;;;15.50;68.60;;;;;;945376;147;27530;-74
2022/09/01 04:21:53;;;;;;;1.83;1.73;;;15.50;68.60;;;;;;947568;147;27390;-74
2022/09/01 04:24:22;;;;;;;1.83;1.60;;;15.40;68.90;;;;;;949041;150;27341;-74
2022/09/01 04:26:47;;;;;;;2.00;1.80;;;15.40;68.90;;;;;;948677;147;27387;-74
2022/09/01 04:29:13;;;;;;;1.90;1.80;;;15.40;69.00;;;;;;930819;150;27431;-74
2022/09/01 04:31:41;;;;;;;1.70;1.60;;;15.40;69.20;;;;;;921434;152;27399;-74
2022/09/01 04:34:15;;;;;;;1.70;1.60;;;15.40;69.30;;;;;;915704;153;27394;-74
2022/09/01 04:36:33;;;;;;;2.43;2.23;;;15.40;69.50;;;;;;912699;153;27331;-74
2022/09/01 04:38:59;;;;;;;2.10;2.00;;;15.40;69.60;;;;;;912453;155;27992;-74
2022/09/01 04:41:26;;;;;;;3.87;1.90;;;15.40;69.80;;;;;;914120;155;27455;-74
2022/09/01 04:43:55;;;;;;;2.20;1.80;;;15.40;69.80;;;;;;921793;152;27318;-74
2022/09/01 04:46:19;;;;;;;3.17;1.60;;;15.40;69.90;;;;;;928640;150;27766;-74
2022/09/01 04:48:46;;;;;;;1.80;1.70;;;15.40;70.10;;;;;;914663;153;28184;-74
2022/09/01 04:51:14;;;;;;;2.07;1.87;;;15.40;70.20;;;;;;915021;153;27402;-74
2022/09/01 04:53:39;;;;;;;2.70;2.00;;;15.50;70.40;;;;;;916897;153;27434;-74
2022/09/01 04:56:06;;;;;;;2.30;2.10;;;15.50;70.40;;;;;;914095;153;27422;-73
2022/09/01 04:58:32;;;;;;;2.60;1.97;;;15.50;70.50;;;;;;916428;153;27402;-73
2022/09/01 05:00:59;;;;;;;2.10;1.90;;;15.60;70.60;;;;;;915020;155;27545;-73
2022/09/01 05:03:25;;;;;;;2.10;1.73;;;15.60;70.60;;;;;;912441;153;27725;-74
2022/09/01 05:05:56;;;;;;;2.23;1.73;;;15.70;70.70;;;;;;914972;155;27427;-74
2022/09/01 05:08:19;;;;;;;1.80;1.70;;;15.80;70.70;;;;;;914523;153;27702;-74
2022/09/01 05:10:45;;;;;;;1.60;1.50;;;15.80;70.70;;;;;;915226;153;27363;-74
2022/09/01 05:13:12;;;;;;;1.87;1.77;;;15.90;70.70;;;;;;912596;153;27447;-74
2022/09/01 05:15:38;;;;;;;1.80;1.70;;;16.00;71.50;;;;;;915173;153;27401;-74
2022/09/01 05:18:08;;;;;;;2.10;2.00;;;16.10;70.90;;;;;;915254;153;27410;-74
2022/09/01 05:20:31;;;;;;;1.85;1.70;;;16.20;71.20;;;;;;917281;153;27384;-74
2022/09/01 05:22:59;;;;;;;1.80;1.70;;;16.30;71.30;;;;;;914007;153;27440;-74
2022/09/01 05:25:26;;;;;;;3.50;1.60;;;16.50;71.30;;;;;;928094;151;27374;-74
2022/09/01 05:27:51;;;;;;;2.22;1.72;;;16.70;71.20;;;;;;927499;151;27388;-74
2022/09/01 05:30:18;;;;;;;2.07;1.87;;;16.90;71.10;;;;;;928140;151;27369;-74
2022/09/01 05:32:47;;;;;;;2.87;1.62;;;17.20;71.00;;;;;;926302;151;27365;-74
2022/09/01 05:35:11;;;;;;;2.85;1.72;;;17.40;71.40;;;;;;928338;151;27418;-74
2022/09/01 05:37:38;;;;;;;1.60;1.50;;;17.80;71.30;;;;;;926093;151;27394;-74
2022/09/01 05:40:04;;;;;;;1.57;1.47;;;18.20;71.30;;;;;;926283;151;27383;-74
2022/09/01 05:42:32;;;;;;;2.33;1.42;;;18.60;71.20;;;;;;926893;151;27285;-74
2022/09/01 05:44:58;;;;;;;1.45;1.35;;;19.00;70.60;;;;;;927013;151;27458;-74
2022/09/01 05:47:25;;;;;;;1.60;1.15;;;19.50;69.90;;;;;;927739;151;27445;-74
2022/09/01 05:49:52;;;;;;;1.80;1.42;;;20.00;69.00;;;;;;925760;151;27424;-74
2022/09/01 05:52:23;;;;;;;1.27;1.22;;;20.40;67.80;;;;;;928915;151;27385;-75
2022/09/01 05:54:44;;;;;;;1.55;1.45;;;20.70;66.50;;;;;;930722;151;28055;-74
2022/09/01 05:57:10;;;;;;;2.25;1.40;;;21.10;65.30;;;;;;929926;151;27439;-74
2022/09/01 05:59:39;;;;;;;1.27;1.17;;;21.20;64.10;;;;;;926281;151;27293;-74
2022/09/01 06:02:07;;;;;;;3.27;1.30;;;21.30;63.40;;;;;;928798;151;27503;-75
2022/09/01 06:04:30;;;;;;;1.30;1.20;;;21.40;62.80;;;;;;926813;151;27454;-74
2022/09/01 06:06:57;;;;;;;2.10;1.20;;;21.50;62.30;;;;;;927229;151;27400;-75
2022/09/01 06:09:23;;;;;;;1.47;1.37;;;21.50;62.00;;;;;;928172;151;27386;-74
2022/09/01 06:11:50;;;;;;;2.00;1.35;;;21.50;61.80;;;;;;929414;151;27360;-74
2022/09/01 06:14:16;;;;;;;1.62;1.30;;;21.40;61.50;;;;;;927697;151;27349;-74
2022/09/01 06:16:43;;;;;;;3.25;1.62;;;21.40;61.50;;;;;;928540;151;27467;-74
2022/09/01 06:19:11;;;;;;;1.92;1.52;;;21.40;61.50;;;;;;927602;151;27393;-74
2022/09/01 06:21:36;;;;;;;1.20;1.10;;;21.40;61.40;;;;;;924763;151;27492;-74
2022/09/01 06:24:03;;;;;;;1.50;1.40;;;21.40;61.40;;;;;;923608;151;27517;-75
2022/09/01 06:26:29;;;;;;;1.98;1.47;;;21.40;61.40;;;;;;920180;152;27449;-75
2022/09/01 06:28:56;;;;;;;1.22;1.07;;;21.50;61.50;;;;;;920503;151;27318;-74
2022/09/01 06:31:25;;;;;;;1.32;1.22;;;21.50;61.40;;;;;;920355;152;27439;-74
2022/09/01 06:33:52;;;;;;;1.12;1.12;;;21.60;61.80;;;;;;919164;152;27434;-74
2022/09/01 06:36:19;;;;;;;1.62;1.50;;;21.60;61.50;;;;;;917759;152;27358;-74
2022/09/01 06:38:45;;;;;;;2.65;1.30;;;21.70;61.40;;;;;;917780;151;27788;-75
2022/09/01 06:41:12;;;;;;;2.25;1.62;;;21.80;61.30;;;;;;919715;152;27433;-75
2022/09/01 06:43:41;;;;;;;2.22;2.05;;;21.90;61.30;;;;;;927547;151;27834;-75
2022/09/01 06:46:08;;;;;;;1.45;1.32;;;22.00;62.00;;;;;;911999;153;27361;-75
2022/09/01 06:48:34;;;;;;;2.40;1.27;;;22.20;61.10;;;;;;917926;152;27368;-75
2022/09/01 06:51:01;;;;;;;1.57;1.47;;;22.40;61.20;;;;;;928941;150;27427;-75
2022/09/01 06:53:29;;;;;;;1.30;1.20;;;22.80;61.80;;;;;;923587;151;27479;-75
2022/09/01 06:55:55;;;;;;;0.93;0.93;;;23.20;62.10;;;;;;926256;151;27386;-75
2022/09/01 06:58:20;;;;;;;1.47;1.12;;;23.60;61.50;;;;;;927105;151;27340;-75
2022/09/01 07:00:48;;;;;;;2.08;1.47;;;24.10;60.10;;;;;;926223;151;27426;-75
2022/09/01 07:03:14;;;;;;;1.32;1.22;;;24.50;59.00;;;;;;927393;150;27444;-75
2022/09/01 07:05:40;;;;;;;1.87;1.60;;;24.70;58.10;;;;;;927305;151;27408;-75
2022/09/01 07:08:09;;;;;;;1.75;1.60;;;24.90;57.40;;;;;;925761;151;27483;-75
2022/09/01 07:10:34;;;;;;;2.12;1.35;;;25.00;57.20;;;;;;927377;150;27365;-75
2022/09/01 07:13:00;;;;;;;1.50;1.32;;;25.00;56.20;;;;;;928654;150;27778;-75
2022/09/01 07:15:28;;;;;;;2.72;1.17;;;24.90;55.80;;;;;;927701;150;27326;-75
2022/09/01 07:17:54;;;;;;;1.42;1.32;;;24.90;55.60;;;;;;926369;150;27310;-75
2022/09/01 07:20:20;;;;;;;3.17;1.15;;;24.70;55.40;;;;;;927612;150;27476;-75
2022/09/01 07:22:46;;;;;;;1.27;1.17;;;24.60;55.30;;;;;;928371;151;27356;-75
2022/09/01 07:25:13;;;;;;;1.12;1.07;;;24.50;55.40;;;;;;924885;150;27973;-75
2022/09/01 07:27:39;;;;;;;2.08;1.07;;;24.40;55.50;;;;;;938979;149;27392;-75
2022/09/01 07:30:08;;;;;;;1.27;1.17;;;24.30;55.70;;;;;;939993;149;27343;-75
2022/09/01 07:32:34;;;;;;;1.40;1.30;;;24.20;55.80;;;;;;907895;154;27357;-75
2022/09/01 07:34:59;;;;;;;1.70;1.35;;;24.20;55.80;;;;;;938851;149;27386;-75
2022/09/01 07:37:26;;;;;;;2.80;1.42;;;24.10;55.90;;;;;;939461;150;27380;-75
2022/09/01 07:39:54;;;;;;;2.98;1.55;;;24.10;55.90;;;;;;939362;149;27322;-75
2022/09/01 07:42:19;;;;;;;3.50;1.50;;;24.10;56.00;;;;;;913702;155;27355;-75
2022/09/01 07:44:46;;;;;;;2.85;1.27;;;24.20;56.00;;;;;;939451;149;27509;-75
2022/09/01 07:47:14;;;;;;;2.50;1.30;;;24.20;56.00;;;;;;905308;157;27548;-75
2022/09/01 07:49:39;;;;;;;1.17;1.07;;;24.30;56.00;;;;;;940115;149;27425;-75
2022/09/01 07:52:06;;;;;;;1.47;1.37;;;24.30;55.80;;;;;;939588;151;27403;-75
2022/09/01 07:54:33;;;;;;;1.70;1.40;;;24.40;55.80;;;;;;937949;149;27353;-75
2022/09/01 07:57:00;;;;;;;1.40;0.98;;;24.50;55.70;;;;;;937499;150;27449;-75
2022/09/01 07:59:28;;;;;;;1.20;1.07;;;24.50;55.50;;;;;;905030;154;27519;-75
2022/09/01 08:01:52;;;;;;;2.02;1.72;;;24.60;55.40;;;;;;939782;151;27438;-75
2022/09/01 08:04:21;;;;;;;1.40;1.30;;;24.70;55.30;;;;;;940380;151;27409;-75
2022/09/01 08:06:45;;;;;;;2.05;1.50;;;24.70;55.10;;;;;;938362;149;27456;-75
2022/09/01 08:09:12;;;;;;;1.37;1.00;;;24.70;54.90;;;;;;939543;151;27347;-75
2022/09/01 08:11:38;;;;;;;1.12;1.02;;;24.70;54.90;;;;;;938287;151;27368;-75
2022/09/01 08:14:05;;;;;;;1.75;1.10;;;24.80;55.00;;;;;;939134;151;27373;-75
2022/09/01 08:16:31;;;;;;;1.60;1.25;;;24.80;54.90;;;;;;938643;149;27760;-75
2022/09/01 08:18:58;;;;;;;1.40;1.22;;;24.90;55.10;;;;;;938853;149;27413;-75
2022/09/01 08:21:25;;;;;;;2.27;1.40;;;24.90;54.90;;;;;;935437;151;27443;-75
2022/09/01 08:23:51;;;;;;;1.37;1.27;;;25.00;54.80;;;;;;938660;149;27443;-75
2022/09/01 08:26:18;;;;;;;1.20;1.10;;;25.10;54.70;;;;;;945443;147;27518;-75
2022/09/01 08:28:44;;;;;;;1.15;1.05;;;25.20;54.60;;;;;;948799;147;27427;-75
2022/09/01 08:31:11;;;;;;;1.45;1.35;;;25.30;54.50;;;;;;949837;147;27414;-75
2022/09/01 08:33:38;;;;;;;1.37;1.27;;;25.40;54.40;;;;;;946552;147;27388;-75
2022/09/01 08:36:04;;;;;;;1.40;1.30;;;25.50;54.30;;;;;;949824;147;27362;-75
2022/09/01 08:38:31;;;;;;;3.05;1.60;;;25.60;54.10;;;;;;949174;147;27386;-75
2022/09/01 08:40:57;;;;;;;1.32;1.22;;;25.80;54.20;;;;;;946868;147;27534;-75
2022/09/01 08:43:30;;;;;;;3.42;1.20;;;25.90;54.10;;;;;;945185;148;27725;-75
2022/09/01 08:45:56;;;;;;;1.20;1.20;;;26.10;54.20;;;;;;945073;148;27349;-75
2022/09/01 08:48:41;;;;;;;0.95;0.95;;;26.40;54.20;;;;;;942646;148;27403;-75
2022/09/01 08:51:19;;;;;;;1.00;1.00;;;26.70;54.10;;;;;;942768;148;27358;-75
2022/09/01 08:53:48;;;;;;;2.70;1.60;;;27.10;53.80;;;;;;944663;148;27325;-76
2022/09/01 08:56:15;;;;;;;2.98;1.00;;;27.50;53.60;;;;;;945415;148;27309;-75
2022/09/01 08:58:42;;;;;;;1.25;1.15;;;28.00;53.30;;;;;;943961;148;27327;-75
2022/09/01 09:01:11;;;;;;;2.30;1.25;;;28.40;52.80;;;;;;943245;148;27398;-75
2022/09/01 09:06:48;;;;;;;2.72;1.05;;;29.20;52.00;;;;;;952010;148;27470;-76
2022/09/01 09:09:14;;;;;;;1.50;1.30;;;29.70;51.80;;;;;;941292;148;27444;-76
2022/09/01 09:12:07;;;;;;;2.40;1.02;;;30.10;51.10;;;;;;951308;148;27387;-76
2022/09/01 09:14:47;;;;;;;1.00;1.00;;;30.60;50.00;;;;;;950732;148;27352;-76
2022/09/01 09:17:13;;;;;;;1.00;1.00;;;30.90;49.70;;;;;;950252;148;27443;-76
2022/09/01 09:19:40;;;;;;;1.60;1.30;;;31.20;48.20;;;;;;951397;148;27336;-76
2022/09/01 09:22:10;;;;;;;3.33;1.52;;;31.40;47.50;;;;;;952086;148;27445;-76
2022/09/01 09:24:51;;;;;;;1.35;1.17;;;31.50;46.60;;;;;;950980;148;27366;-76
2022/09/01 09:27:29;;;;;;;1.07;1.07;;;31.60;46.20;;;;;;950373;148;27335;-76
2022/09/01 09:29:56;;;;;;;1.05;0.95;;;31.60;45.90;;;;;;950499;148;27411;-76
2022/09/01 09:32:23;;;;;;;1.40;1.22;;;31.50;45.70;;;;;;951290;148;27423;-76
2022/09/01 09:34:49;;;;;;;1.07;1.07;;;31.60;45.80;;;;;;950804;148;27463;-76
2022/09/01 09:37:16;;;;;;;2.37;1.12;;;31.60;45.70;;;;;;951664;148;27399;-76
2022/09/01 09:39:42;;;;;;;1.10;1.10;;;31.70;45.20;;;;;;949983;148;27423;-76
2022/09/01 09:42:12;;;;;;;3.02;1.27;;;31.90;45.50;;;;;;945099;150;27351;-76
2022/09/01 09:44:38;;;;;;;0.95;0.95;;;32.00;45.00;;;;;;944682;150;27445;-76
2022/09/01 09:47:05;;;;;;;2.05;0.90;;;32.20;44.90;;;;;;944671;150;27357;-76
2022/09/01 09:49:32;;;;;;;1.42;1.00;;;32.40;44.80;;;;;;941886;150;27362;-76
2022/09/01 09:52:01;;;;;;;3.08;0.93;;;32.50;44.20;;;;;;941247;150;27354;-76
2022/09/01 09:54:28;;;;;;;2.65;1.10;;;32.70;44.20;;;;;;939950;150;27385;-76
2022/09/01 09:57:10;;;;;;;1.12;1.02;;;32.80;43.90;;;;;;938187;150;27385;-76
2022/09/01 09:59:48;;;;;;;0.95;0.95;;;33.00;43.60;;;;;;938974;150;27639;-77
2022/09/01 10:02:20;;;;;;;1.15;1.05;;;33.10;43.20;;;;;;942791;150;27468;-76
2022/09/01 10:04:47;;;;;;;1.02;0.85;;;33.20;42.90;;;;;;937550;150;27688;-76
2022/09/01 10:07:25;;;;;;;1.87;1.10;;;33.20;42.20;;;;;;935538;151;27375;-76
2022/09/01 10:09:52;;;;;;;1.17;0.88;;;33.20;41.80;;;;;;929274;152;27492;-77
2022/09/01 10:12:18;;;;;;;1.47;1.37;;;33.20;41.50;;;;;;927316;152;27491;-76
2022/09/01 10:14:46;;;;;;;1.57;1.02;;;33.00;41.10;;;;;;928641;152;28464;-77
2022/09/01 10:17:12;;;;;;;0.90;0.90;;;32.90;41.00;;;;;;925580;152;27359;-76
2022/09/01 10:19:40;;;;;;;1.12;1.00;;;32.70;41.80;;;;;;923252;153;27379;-77
2022/09/01 10:22:05;;;;;;;1.80;1.10;;;32.50;41.00;;;;;;929674;152;27422;-77
2022/09/01 10:24:32;;;;;;;2.02;1.20;;;32.40;41.00;;;;;;923963;154;27393;-76
2022/09/01 10:27:09;;;;;;;1.32;1.02;;;32.20;40.60;;;;;;921503;153;27427;-77
2022/09/01 10:29:37;;;;;;;1.20;1.10;;;32.00;40.70;;;;;;930437;150;27372;-76
2022/09/01 10:32:04;;;;;;;1.30;1.25;;;31.80;40.50;;;;;;916694;154;27372;-77
2022/09/01 10:34:30;;;;;;;1.02;1.02;;;31.60;40.50;;;;;;912281;152;27491;-76
2022/09/01 10:36:56;;;;;;;0.93;0.93;;;31.40;40.70;;;;;;935780;152;27410;-77
2022/09/01 10:39:23;;;;;;;1.00;1.00;;;31.20;41.00;;;;;;932728;152;27481;-77
2022/09/01 10:41:50;;;;;;;2.80;0.95;;;31.00;41.10;;;;;;932524;152;27464;-77
2022/09/01 10:44:32;;;;;;;1.10;1.00;;;30.80;41.10;;;;;;935418;152;27311;-77
2022/09/01 10:46:55;;;;;;;1.57;1.42;;;30.60;41.40;;;;;;934995;152;27450;-77
2022/09/01 10:49:21;;;;;;;1.15;1.05;;;30.60;41.60;;;;;;937144;152;27806;-77
2022/09/01 10:51:48;;;;;;;1.32;0.90;;;30.50;41.80;;;;;;929955;152;27351;-77
2022/09/01 10:54:39;;;;;;;0.90;0.90;;;30.30;41.60;;;;;;937443;152;27332;-77
2022/09/01 10:57:24;;;;;;;1.30;1.20;;;30.30;41.60;;;;;;915739;155;27486;-77
2022/09/01 10:59:52;;;;;;;1.20;1.10;;;30.20;41.60;;;;;;919942;154;27465;-77
2022/09/01 11:02:17;;;;;;;1.00;1.00;;;30.20;41.70;;;;;;921718;154;27383;-76
2022/09/01 11:04:47;;;;;;;0.78;0.78;;;30.10;41.30;;;;;;922882;154;27393;-76
2022/09/01 11:07:25;;;;;;;3.22;1.30;;;30.10;41.20;;;;;;919004;154;27528;-76
2022/09/01 11:10:19;;;;;;;3.10;1.10;;;30.10;41.30;;;;;;914156;155;27360;-76
2022/09/01 11:12:52;;;;;;;1.05;0.88;;;30.00;41.10;;;;;;919505;154;27366;-76
2022/09/01 11:15:18;;;;;;;1.25;1.00;;;30.10;41.30;;;;;;894194;154;27462;-76
2022/09/01 11:17:45;;;;;;;1.50;1.07;;;30.00;41.10;;;;;;926696;153;27422;-75
2022/09/01 11:20:33;;;;;;;1.22;1.10;;;29.90;41.10;;;;;;931056;151;27433;-76
2022/09/01 11:23:05;;;;;;;3.12;1.10;;;30.00;40.90;;;;;;933991;152;27365;-76
2022/09/01 11:25:40;;;;;;;3.40;1.27;;;30.00;40.70;;;;;;945431;150;27359;-76
2022/09/01 11:28:18;;;;;;;1.75;0.85;;;30.00;40.60;;;;;;943888;150;27352;-76
2022/09/01 11:30:57;;;;;;;0.90;0.90;;;29.90;40.60;;;;;;943519;150;27765;-76
2022/09/01 11:33:46;;;;;;;0.85;0.78;;;29.90;40.50;;;;;;941710;150;27335;-76
2022/09/01 11:36:14;;;;;;;1.25;1.07;;;29.80;40.40;;;;;;940747;150;27500;-76
2022/09/01 11:38:50;;;;;;;2.20;1.20;;;29.70;40.70;;;;;;941352;150;27439;-76
2022/09/01 11:41:25;;;;;;;1.15;1.05;;;29.60;40.80;;;;;;943222;150;27422;-75
2022/09/01 11:43:55;;;;;;;1.27;1.10;;;29.40;40.70;;;;;;946020;150;27465;-76
2022/09/01 11:46:27;;;;;;;3.00;1.20;;;29.30;40.90;;;;;;943270;150;27327;-76
2022/09/01 11:48:54;;;;;;;1.02;1.00;;;29.30;40.90;;;;;;942234;150;27482;-76
2022/09/01 11:51:20;;;;;;;1.27;1.10;;;29.20;41.10;;;;;;943214;150;27373;-76
2022/09/01 11:53:47;;;;;;;0.98;0.93;;;29.20;41.10;;;;;;946309;150;27295;-76
2022/09/01 11:56:16;;;;;;;5.17;1.20;;;29.10;41.20;;;;;;942929;150;27366;-76
2022/09/01 11:58:43;;;;;;;1.00;1.00;;;29.10;41.00;;;;;;942342;150;27432;-76
2022/09/01 12:01:18;;;;;;;1.20;1.10;;;29.10;41.00;;;;;;944416;150;27371;-76
2022/09/01 12:03:45;;;;;;;3.70;1.00;;;29.10;41.10;;;;;;945824;150;27937;-76
2022/09/01 12:06:11;;;;;;;0.95;0.90;;;29.10;41.50;;;;;;945994;150;27367;-76
2022/09/01 12:08:38;;;;;;;1.22;1.12;;;29.10;41.20;;;;;;933775;150;27405;-75
2022/09/01 12:11:07;;;;;;;1.52;1.25;;;29.20;41.20;;;;;;934371;152;27353;-76
2022/09/01 12:13:34;;;;;;;1.82;1.10;;;29.20;40.90;;;;;;944173;150;27315;-76
2022/09/01 12:16:00;;;;;;;1.07;1.07;;;29.30;40.60;;;;;;944331;150;27322;-76
2022/09/01 12:18:27;;;;;;;1.20;1.10;;;29.30;40.40;;;;;;945006;150;27974;-76
2022/09/01 12:20:54;;;;;;;0.95;0.88;;;29.30;40.40;;;;;;945146;150;27462;-76
2022/09/01 12:23:29;;;;;;;3.00;1.25;;;29.20;40.60;;;;;;945268;150;27319;-76
2022/09/01 12:25:56;;;;;;;1.50;1.07;;;29.20;40.60;;;;;;943696;150;27324;-76
2022/09/01 12:28:25;;;;;;;1.12;1.10;;;29.10;40.50;;;;;;945290;150;27310;-76
2022/09/01 12:30:52;;;;;;;1.20;1.10;;;29.10;40.50;;;;;;941745;150;27357;-76
2022/09/01 12:33:18;;;;;;;1.20;1.10;;;29.00;40.50;;;;;;945215;150;27431;-76
2022/09/01 12:35:44;;;;;;;1.45;1.17;;;29.00;40.70;;;;;;943973;150;27344;-76
2022/09/01 12:38:20;;;;;;;1.90;1.10;;;29.10;40.70;;;;;;946694;150;27372;-76
2022/09/01 12:40:49;;;;;;;1.00;1.00;;;29.10;40.60;;;;;;944241;150;27489;-76
2022/09/01 12:43:35;;;;;;;3.02;1.20;;;29.20;40.60;;;;;;945360;150;28060;-78
2022/09/01 12:46:03;;;;;;;2.00;1.15;;;29.30;40.50;;;;;;942886;150;27456;-77
2022/09/01 12:48:33;;;;;;;1.00;1.00;;;29.40;40.30;;;;;;941776;150;27346;-77
2022/09/01 12:51:21;;;;;;;1.40;1.07;;;29.40;40.00;;;;;;945161;150;27329;-77
2022/09/01 12:53:50;;;;;;;1.22;1.10;;;29.50;40.00;;;;;;937207;150;27355;-77
2022/09/01 12:56:20;;;;;;;1.17;0.95;;;29.50;39.50;;;;;;943033;150;27897;-77
2022/09/01 12:58:47;;;;;;;1.82;1.10;;;29.60;39.50;;;;;;943966;150;27366;-77
2022/09/01 13:01:15;;;;;;;1.00;1.00;;;29.50;39.30;;;;;;948604;150;27428;-77